D/T METAR WX W/SPE G/SPE TEMP DEWP FEEL
25/05/22 00:50 EGCN 242350Z 21007KT CAVOK 08/05 Q1010 8.1mph 8°C 5°C 7.3°C
25/05/22 00:20 EGCN 242320Z 22009KT 9999 FEW040 10/06 Q1010 10.4mph 10°C 6°C 9.6°C
24/05/22 23:50 EGCN 242250Z 21006KT CAVOK 07/04 Q1010 6.9mph 7°C 4°C 6.0°C
24/05/22 23:20 EGCN 242220Z 20003KT CAVOK 08/05 Q1009 3.5mph 8°C 5°C 7.3°C
24/05/22 22:50 EGCN 242150Z 18004KT CAVOK 09/05 Q1009 4.6mph 9°C 5°C 8.3°C
24/05/22 22:20 EGCN 242120Z VRB02KT CAVOK 11/05 Q1009 2.3mph 11°C 5°C 10.3°C
24/05/22 21:20 EGCN 242020Z 25005KT CAVOK 12/05 Q1009 5.8mph 12°C 5°C 11.3°C
24/05/22 20:50 EGCN 241950Z 27008KT CAVOK 13/05 Q1009 9.2mph 13°C 5°C 12.3°C
24/05/22 20:20 EGCN 241920Z 26011KT 9999 FEW048 14/05 Q1008 12.7mph 14°C 5°C 13.3°C
24/05/22 19:50 EGCN 241850Z 28011KT 9999 FEW048 15/05 Q1008 12.7mph 15°C 5°C 14.3°C
24/05/22 19:20 EGCN 241820Z 26013KT 9999 FEW043 15/05 Q1008 15.0mph 15°C 5°C 14.3°C
24/05/22 18:50 EGCN 241750Z 29011KT 9999 FEW043 16/05 Q1007 12.7mph 16°C 5°C 15.3°C
24/05/22 18:20 EGCN 241720Z 26011KT 220V290 CAVOK 16/05 Q1007 12.7mph 16°C 5°C 15.3°C
24/05/22 17:50 EGCN 241650Z 27014G24KT 240V330 9999 FEW030TCU FEW048 15/05 Q1007 16.1mph 27.6mph 15°C 5°C 14.3°C
24/05/22 17:20 EGCN 241620Z 28013KT 9999 FEW030TCU 16/04 Q1007 15.0mph 16°C 4°C 15.0°C
24/05/22 16:50 EGCN 241550Z 28014KT 9999 FEW030TCU 16/05 Q1007 16.1mph 16°C 5°C 15.3°C
24/05/22 16:20 EGCN 241520Z 26017KT 9999 FEW030TCU 15/05 Q1006 19.6mph 15°C 5°C 14.3°C
24/05/22 15:50 EGCN 241450Z 28017KT 9999 FEW030TCU BKN045 17/06 Q1006 19.6mph 17°C 6°C 16.6°C
24/05/22 15:20 EGCN 241420Z 28012KT 9999 VCSH FEW039 SCT043TCU 16/06 Q1006 VCSH 13.8mph 16°C 6°C 15.6°C
24/05/22 14:50 EGCN 241350Z 28015KT 9999 VCSH FEW020 SCT035CB 16/06 Q1006 VCSH 17.3mph 16°C 6°C 15.6°C
24/05/22 14:20 EGCN 241320Z 30015KT 270V330 9999 VCSH FEW018 SCT035CB 15/07 Q1005 VCSH 17.3mph 15°C 7°C 15.0°C
24/05/22 13:50 EGCN 241250Z 30008KT 260V340 9999 VCSH FEW030 SCT034TCU 16/07 Q1005 VCSH 9.2mph 16°C 7°C 16.0°C
24/05/22 12:50 EGCN 241150Z 25008KT 9999 VCSH FEW018 SCT024TCU 13/09 Q1005 VCSH 9.2mph 13°C 9°C 13.8°C
24/05/22 12:20 EGCN 241120Z 28014KT 9999 5000SE -SHRA FEW020 SCT026TCU 10/08 Q1005 -SHRA 16.1mph 10°C 8°C 10.4°C
24/05/22 11:50 EGCN 241050Z 29014KT 9999 VCSH FEW028 SCT034TCU 15/05 Q1004 VCSH 16.1mph 15°C 5°C 14.3°C
24/05/22 11:20 EGCN 241020Z 29014KT 260V330 9999 VCSH FEW030 SCT049TCU 15/07 Q1004 VCSH 16.1mph 15°C 7°C 15.0°C
24/05/22 10:50 EGCN 240950Z 29014KT 9999 VCSH SCT038 14/05 Q1004 VCSH 16.1mph 14°C 5°C 13.3°C
24/05/22 10:20 EGCN 240920Z 27011KT 9999 FEW032 SCT036 13/06 Q1004 12.7mph 13°C 6°C 12.6°C
24/05/22 09:50 EGCN 240850Z 29010KT 9999 SCT035 14/07 Q1003 11.5mph 14°C 7°C 14.0°C
24/05/22 09:20 EGCN 240820Z 30013KT 9999 SCT042 14/06 Q1003 15.0mph 14°C 6°C 13.6°C
24/05/22 08:50 EGCN 240750Z 27013KT 9999 FEW035 13/07 Q1003 15.0mph 13°C 7°C 13.0°C
24/05/22 08:20 EGCN 240720Z 28011KT 9999 FEW036 13/07 Q1002 12.7mph 13°C 7°C 13.0°C
24/05/22 07:50 EGCN 240650Z 28011KT CAVOK 12/08 Q1002 12.7mph 12°C 8°C 12.4°C
24/05/22 07:20 EGCN 240620Z 28009KT CAVOK 12/08 Q1002 10.4mph 12°C 8°C 12.4°C
24/05/22 06:50 EGCN 240550Z 28009KT CAVOK 11/08 Q1001 10.4mph 11°C 8°C 11.4°C
24/05/22 06:20 EGCN 240520Z 28009KT CAVOK 11/08 Q1001 10.4mph 11°C 8°C 11.4°C
24/05/22 05:50 EGCN 240450Z 27009KT CAVOK 11/08 Q1001 10.4mph 11°C 8°C 11.4°C
24/05/22 05:20 EGCN 240420Z 27008KT CAVOK 10/08 Q1000 9.2mph 10°C 8°C 10.4°C
24/05/22 04:50 EGCN 240350Z 26008KT CAVOK 10/08 Q1000 9.2mph 10°C 8°C 10.4°C
24/05/22 04:20 EGCN 240320Z 26007KT 9999 SCT040 10/08 Q1000 8.1mph 10°C 8°C 10.4°C
24/05/22 03:50 EGCN 240250Z 27007KT 230V310 9999 SCT040 BKN048 10/08 Q1000 8.1mph 10°C 8°C 10.4°C
24/05/22 03:20 EGCN 240220Z AUTO 27007KT 9999 OVC036/// 10/09 Q1000 8.1mph 10°C 9°C 10.8°C
24/05/22 02:50 EGCN 240150Z AUTO 27006KT 9999 -RA SCT037/// BKN044/// 10/09 Q1000 -RA 6.9mph 10°C 9°C 10.8°C
24/05/22 01:50 EGCN 240050Z 27006KT 9999 SCT038 11/09 Q1000 6.9mph 11°C 9°C 11.8°C
24/05/22 01:20 EGCN 240020Z 27006KT 9999 -RA SCT035 11/09 Q1000 -RA 6.9mph 11°C 9°C 11.8°C
24/05/22 00:20 EGCN 232320Z 29006KT 9999 -RA BKN033 11/09 Q1000 RERA -RA 6.9mph 11°C 9°C 11.8°C
23/05/22 23:50 EGCN 232250Z 30009KT 9999 -RA BKN034 11/09 Q1000 -RA 10.4mph 11°C 9°C 11.8°C
23/05/22 23:20 EGCN 232220Z 30010KT 9999 BKN034 12/08 Q1000 11.5mph 12°C 8°C 12.4°C
23/05/22 22:50 EGCN 232150Z 29010KT 9999 SCT034 12/08 Q1000 11.5mph 12°C 8°C 12.4°C
23/05/22 22:20 EGCN 232120Z 29011KT 9999 FEW036 13/08 Q1000 12.7mph 13°C 8°C 13.4°C
23/05/22 21:50 EGCN 232050Z 29010KT CAVOK 13/07 Q1000 11.5mph 13°C 7°C 13.0°C
23/05/22 21:20 EGCN 232020Z 28009KT 9999 FEW030 13/08 Q1000 10.4mph 13°C 8°C 13.4°C
23/05/22 20:50 EGCN 231950Z 28010KT 260V330 9999 FEW031 14/08 Q1000 11.5mph 14°C 8°C 14.4°C
23/05/22 20:20 EGCN 231920Z 26009KT 9999 VCSH FEW031 SCT044 14/09 Q1000 VCSH 10.4mph 14°C 9°C 14.8°C
23/05/22 19:20 EGCN 231820Z 27007KT 9999 VCSH FEW035 15/08 Q0999 VCSH 8.1mph 15°C 8°C 15.4°C
23/05/22 18:50 EGCN 231750Z 26008KT 9999 FEW035 15/09 Q1000 9.2mph 15°C 9°C 15.8°C
23/05/22 18:20 EGCN 231720Z 29009KT 9999 FEW031 16/09 Q1000 10.4mph 16°C 9°C 16.8°C
23/05/22 17:50 EGCN 231650Z 26010KT 9999 FEW034 16/08 Q1000 11.5mph 16°C 8°C 16.4°C
23/05/22 17:20 EGCN 231620Z 29010KT 9999 FEW033 16/09 Q1000 11.5mph 16°C 9°C 16.8°C
23/05/22 16:50 EGCN 231550Z 30012KT 9999 FEW033 16/09 Q1000 13.8mph 16°C 9°C 16.8°C
23/05/22 16:20 EGCN 231520Z 30011KT 9999 FEW042 16/09 Q1000 12.7mph 16°C 9°C 16.8°C
23/05/22 15:50 EGCN 231450Z 29012KT 9999 FEW040 16/09 Q1000 13.8mph 16°C 9°C 16.8°C
23/05/22 15:20 EGCN 231420Z 27009KT 9999 BKN040 BKN048 17/08 Q1000 10.4mph 17°C 8°C 17.4°C
23/05/22 14:50 EGCN 231350Z 30010KT 260V330 9999 FEW040 SCT048 17/08 Q1000 11.5mph 17°C 8°C 17.4°C
23/05/22 14:20 EGCN 231320Z 23009KT 200V260 9999 FEW045 17/08 Q1000 10.4mph 17°C 8°C 17.4°C
23/05/22 13:20 EGCN 231220Z 27004KT 230V340 9999 SCT046 18/07 Q1001 4.6mph 18°C 7°C 18.0°C
23/05/22 12:20 EGCN 231120Z 29007KT 250V320 9999 FEW038 17/08 Q1001 8.1mph 17°C 8°C 17.4°C
23/05/22 11:50 EGCN 231050Z 27008KT 240V320 9999 FEW033 SCT039 16/08 Q1001 9.2mph 16°C 8°C 16.4°C
23/05/22 11:20 EGCN 231020Z 28009KT 240V310 9999 FEW032 SCT038 16/08 Q1002 10.4mph 16°C 8°C 16.4°C
23/05/22 10:50 EGCN 230950Z 27007KT 240V310 9999 FEW033 SCT039 16/09 Q1002 8.1mph 16°C 9°C 16.8°C
23/05/22 10:20 EGCN 230920Z 27007KT 230V300 9999 BKN034 17/08 Q1002 8.1mph 17°C 8°C 17.4°C
23/05/22 09:50 EGCN 230850Z 29005KT 220V320 9999 FEW034 16/08 Q1002 5.8mph 16°C 8°C 16.4°C
23/05/22 09:20 EGCN 230820Z 23007KT 190V270 9999 FEW031 16/08 Q1003 8.1mph 16°C 8°C 16.4°C
23/05/22 08:50 EGCN 230750Z 28009KT 9999 FEW035 15/08 Q1003 10.4mph 15°C 8°C 15.4°C
23/05/22 08:20 EGCN 230720Z 21006KT 180V240 CAVOK 15/09 Q1003 6.9mph 15°C 9°C 15.8°C
23/05/22 07:50 EGCN 230650Z 24007KT CAVOK 14/09 Q1003 8.1mph 14°C 9°C 14.8°C
23/05/22 07:20 EGCN 230620Z 24008KT CAVOK 14/09 Q1003 9.2mph 14°C 9°C 14.8°C
23/05/22 06:50 EGCN 230550Z 23005KT CAVOK 14/10 Q1004 5.8mph 14°C 10°C 15.3°C
23/05/22 06:20 EGCN 230520Z 25005KT CAVOK 14/09 Q1004 5.8mph 14°C 9°C 14.8°C
23/05/22 05:50 EGCN 230450Z 24008KT CAVOK 14/09 Q1004 9.2mph 14°C 9°C 14.8°C
23/05/22 05:20 EGCN 230420Z 23005KT 9999 BKN047 14/11 Q1004 5.8mph 14°C 11°C 15.8°C
23/05/22 04:20 EGCN 230320Z 21006KT 9999 BKN039 OVC049 14/11 Q1004 6.9mph 14°C 11°C 15.8°C
23/05/22 03:50 EGCN 230250Z AUTO 21006KT 9999 OVC038/// 14/11 Q1005 6.9mph 14°C 11°C 15.8°C
23/05/22 03:20 EGCN 230220Z AUTO 21006KT 9999 BKN034/// OVC039/// 15/11 Q1005 6.9mph 15°C 11°C 16.8°C
23/05/22 02:50 EGCN 230150Z 21006KT 9999 BKN039 15/11 Q1005 6.9mph 15°C 11°C 16.8°C
23/05/22 02:20 EGCN 230120Z 19004KT 9999 SCT042 15/10 Q1005 4.6mph 15°C 10°C 16.3°C
23/05/22 01:20 EGCN 230020Z 22004KT CAVOK 15/10 Q1006 4.6mph 15°C 10°C 16.3°C
23/05/22 00:50 EGCN 222350Z 23007KT CAVOK 16/10 Q1006 8.1mph 16°C 10°C 17.3°C
23/05/22 00:20 EGCN 222320Z 24009KT CAVOK 16/10 Q1006 10.4mph 16°C 10°C 17.3°C
22/05/22 23:50 EGCN 222250Z 23007KT 9999 BKN048 17/11 Q1006 8.1mph 17°C 11°C 18.8°C
22/05/22 23:20 EGCN 222220Z 20007KT CAVOK 16/12 Q1007 8.1mph 16°C 12°C 18.3°C
22/05/22 22:50 EGCN 222150Z 21007KT CAVOK 16/12 Q1007 8.1mph 16°C 12°C 18.3°C
22/05/22 22:20 EGCN 222120Z 21009KT CAVOK 17/12 Q1007 10.4mph 17°C 12°C 19.3°C
22/05/22 21:50 EGCN 222050Z 21008KT CAVOK 17/11 Q1007 9.2mph 17°C 11°C 18.8°C
22/05/22 21:20 EGCN 222020Z 22008KT CAVOK 17/11 Q1007 9.2mph 17°C 11°C 18.8°C
22/05/22 20:50 EGCN 221950Z 21009KT CAVOK 17/12 Q1008 10.4mph 17°C 12°C 19.3°C